sensor_id;sensor_type;location;lat;lon;timestamp;P1;durP1;ratioP1;P2;durP2;ratioP2
51034;SDS011;37062;52.546;13.230;2022-09-09T00:00:45;7.25;;;5.63;;
51034;SDS011;37062;52.546;13.230;2022-09-09T00:03:17;7.57;;;6.88;;
51034;SDS011;37062;52.546;13.230;2022-09-09T00:05:51;9.82;;;5.20;;
51034;SDS011;37062;52.546;13.230;2022-09-09T00:08:33;6.93;;;4.78;;
51034;SDS011;37062;52.546;13.230;2022-09-09T00:11:11;4.50;;;4.10;;
51034;SDS011;37062;52.546;13.230;2022-09-09T00:13:46;4.22;;;3.83;;
51034;SDS011;37062;52.546;13.230;2022-09-09T00:16:19;4.55;;;4.15;;
51034;SDS011;37062;52.546;13.230;2022-09-09T00:18:55;4.80;;;4.30;;
51034;SDS011;37062;52.546;13.230;2022-09-09T00:21:30;5.38;;;4.57;;
51034;SDS011;37062;52.546;13.230;2022-09-09T00:24:01;4.93;;;4.43;;
51034;SDS011;37062;52.546;13.230;2022-09-09T00:26:39;6.82;;;4.57;;
51034;SDS011;37062;52.546;13.230;2022-09-09T00:29:14;5.85;;;5.28;;
51034;SDS011;37062;52.546;13.230;2022-09-09T00:31:49;5.47;;;4.85;;
51034;SDS011;37062;52.546;13.230;2022-09-09T00:34:18;5.80;;;5.30;;
51034;SDS011;37062;52.546;13.230;2022-09-09T00:36:48;6.05;;;5.10;;
51034;SDS011;37062;52.546;13.230;2022-09-09T00:39:20;5.45;;;4.95;;
51034;SDS011;37062;52.546;13.230;2022-09-09T00:42:00;8.07;;;6.05;;
51034;SDS011;37062;52.546;13.230;2022-09-09T00:44:38;7.80;;;5.88;;
51034;SDS011;37062;52.546;13.230;2022-09-09T00:47:19;6.00;;;5.45;;
51034;SDS011;37062;52.546;13.230;2022-09-09T00:50:09;6.63;;;5.88;;
51034;SDS011;37062;52.546;13.230;2022-09-09T00:53:01;6.80;;;6.07;;
51034;SDS011;37062;52.546;13.230;2022-09-09T00:55:40;8.48;;;5.78;;
51034;SDS011;37062;52.546;13.230;2022-09-09T00:58:15;6.40;;;5.38;;
51034;SDS011;37062;52.546;13.230;2022-09-09T01:00:44;6.75;;;6.05;;
51034;SDS011;37062;52.546;13.230;2022-09-09T01:03:19;6.53;;;5.60;;
51034;SDS011;37062;52.546;13.230;2022-09-09T01:05:54;6.57;;;5.97;;
51034;SDS011;37062;52.546;13.230;2022-09-09T01:11:36;7.20;;;6.47;;
51034;SDS011;37062;52.546;13.230;2022-09-09T01:14:16;7.63;;;6.93;;
51034;SDS011;37062;52.546;13.230;2022-09-09T01:16:52;8.18;;;7.30;;
51034;SDS011;37062;52.546;13.230;2022-09-09T01:19:24;8.48;;;7.68;;
51034;SDS011;37062;52.546;13.230;2022-09-09T01:22:03;8.90;;;8.00;;
51034;SDS011;37062;52.546;13.230;2022-09-09T01:24:40;9.10;;;7.93;;
51034;SDS011;37062;52.546;13.230;2022-09-09T01:27:20;8.98;;;7.95;;
51034;SDS011;37062;52.546;13.230;2022-09-09T01:29:50;8.48;;;7.60;;
51034;SDS011;37062;52.546;13.230;2022-09-09T01:32:39;7.95;;;7.15;;
51034;SDS011;37062;52.546;13.230;2022-09-09T01:35:10;8.00;;;7.30;;
51034;SDS011;37062;52.546;13.230;2022-09-09T01:37:46;7.97;;;7.18;;
51034;SDS011;37062;52.546;13.230;2022-09-09T01:40:13;8.35;;;7.45;;
51034;SDS011;37062;52.546;13.230;2022-09-09T01:42:43;7.00;;;6.40;;
51034;SDS011;37062;52.546;13.230;2022-09-09T01:45:10;7.32;;;6.63;;
51034;SDS011;37062;52.546;13.230;2022-09-09T01:47:38;6.90;;;6.30;;
51034;SDS011;37062;52.546;13.230;2022-09-09T01:50:15;6.15;;;5.57;;
51034;SDS011;37062;52.546;13.230;2022-09-09T01:52:44;5.95;;;5.43;;
51034;SDS011;37062;52.546;13.230;2022-09-09T01:55:19;6.93;;;6.22;;
51034;SDS011;37062;52.546;13.230;2022-09-09T01:58:03;6.22;;;4.95;;
51034;SDS011;37062;52.546;13.230;2022-09-09T02:00:58;6.38;;;5.78;;
51034;SDS011;37062;52.546;13.230;2022-09-09T02:03:37;6.32;;;5.72;;
51034;SDS011;37062;52.546;13.230;2022-09-09T02:06:20;6.80;;;5.80;;
51034;SDS011;37062;52.546;13.230;2022-09-09T02:09:00;6.20;;;5.57;;
51034;SDS011;37062;52.546;13.230;2022-09-09T02:11:31;6.18;;;5.50;;
51034;SDS011;37062;52.546;13.230;2022-09-09T02:14:14;6.03;;;5.40;;
51034;SDS011;37062;52.546;13.230;2022-09-09T02:16:48;7.30;;;5.68;;
51034;SDS011;37062;52.546;13.230;2022-09-09T02:19:24;6.70;;;6.00;;
51034;SDS011;37062;52.546;13.230;2022-09-09T02:22:07;6.50;;;5.63;;
51034;SDS011;37062;52.546;13.230;2022-09-09T02:24:35;6.10;;;5.50;;
51034;SDS011;37062;52.546;13.230;2022-09-09T02:27:14;6.32;;;5.72;;
51034;SDS011;37062;52.546;13.230;2022-09-09T02:29:46;7.13;;;5.38;;
51034;SDS011;37062;52.546;13.230;2022-09-09T02:32:19;6.50;;;5.65;;
51034;SDS011;37062;52.546;13.230;2022-09-09T02:34:49;6.82;;;5.30;;
51034;SDS011;37062;52.546;13.230;2022-09-09T02:37:26;7.65;;;6.65;;
51034;SDS011;37062;52.546;13.230;2022-09-09T02:39:59;8.73;;;7.93;;
51034;SDS011;37062;52.546;13.230;2022-09-09T02:42:26;11.18;;;7.68;;
51034;SDS011;37062;52.546;13.230;2022-09-09T02:45:01;8.70;;;7.82;;
51034;SDS011;37062;52.546;13.230;2022-09-09T02:47:31;7.50;;;6.70;;
51034;SDS011;37062;52.546;13.230;2022-09-09T02:50:12;9.35;;;7.13;;
51034;SDS011;37062;52.546;13.230;2022-09-09T02:52:45;8.15;;;7.32;;
51034;SDS011;37062;52.546;13.230;2022-09-09T02:55:22;8.23;;;7.32;;
51034;SDS011;37062;52.546;13.230;2022-09-09T02:57:56;18.65;;;12.77;;
51034;SDS011;37062;52.546;13.230;2022-09-09T03:00:29;12.07;;;9.60;;
51034;SDS011;37062;52.546;13.230;2022-09-09T03:03:00;8.27;;;7.47;;
51034;SDS011;37062;52.546;13.230;2022-09-09T03:05:28;13.90;;;10.52;;
51034;SDS011;37062;52.546;13.230;2022-09-09T03:07:55;12.10;;;9.93;;
51034;SDS011;37062;52.546;13.230;2022-09-09T03:10:25;12.35;;;10.55;;
51034;SDS011;37062;52.546;13.230;2022-09-09T03:12:54;11.45;;;9.60;;
51034;SDS011;37062;52.546;13.230;2022-09-09T03:15:22;11.60;;;9.25;;
51034;SDS011;37062;52.546;13.230;2022-09-09T03:17:52;12.23;;;10.20;;
51034;SDS011;37062;52.546;13.230;2022-09-09T03:20:21;10.27;;;8.88;;
51034;SDS011;37062;52.546;13.230;2022-09-09T03:22:49;9.05;;;7.57;;
51034;SDS011;37062;52.546;13.230;2022-09-09T03:25:16;8.00;;;6.50;;
51034;SDS011;37062;52.546;13.230;2022-09-09T03:27:44;6.60;;;5.60;;
51034;SDS011;37062;52.546;13.230;2022-09-09T03:30:12;7.97;;;5.80;;
51034;SDS011;37062;52.546;13.230;2022-09-09T03:32:40;5.88;;;5.28;;
51034;SDS011;37062;52.546;13.230;2022-09-09T03:35:09;8.82;;;6.00;;
51034;SDS011;37062;52.546;13.230;2022-09-09T03:37:36;6.63;;;5.65;;
51034;SDS011;37062;52.546;13.230;2022-09-09T03:40:05;8.07;;;6.45;;
51034;SDS011;37062;52.546;13.230;2022-09-09T03:42:34;6.40;;;5.88;;
51034;SDS011;37062;52.546;13.230;2022-09-09T03:45:02;8.98;;;6.03;;
51034;SDS011;37062;52.546;13.230;2022-09-09T03:47:31;9.00;;;6.55;;
51034;SDS011;37062;52.546;13.230;2022-09-09T03:50:04;6.68;;;5.97;;
51034;SDS011;37062;52.546;13.230;2022-09-09T03:52:36;9.05;;;7.80;;
51034;SDS011;37062;52.546;13.230;2022-09-09T03:55:07;11.48;;;7.80;;
51034;SDS011;37062;52.546;13.230;2022-09-09T03:57:35;11.13;;;8.40;;
51034;SDS011;37062;52.546;13.230;2022-09-09T04:00:07;11.15;;;8.77;;
51034;SDS011;37062;52.546;13.230;2022-09-09T04:02:44;7.80;;;6.15;;
51034;SDS011;37062;52.546;13.230;2022-09-09T04:05:15;7.57;;;5.32;;
51034;SDS011;37062;52.546;13.230;2022-09-09T04:07:45;9.60;;;7.13;;
51034;SDS011;37062;52.546;13.230;2022-09-09T04:10:13;12.60;;;8.60;;
51034;SDS011;37062;52.546;13.230;2022-09-09T04:12:42;7.03;;;5.60;;
51034;SDS011;37062;52.546;13.230;2022-09-09T04:15:09;8.07;;;7.28;;
51034;SDS011;37062;52.546;13.230;2022-09-09T04:17:38;7.00;;;5.30;;
51034;SDS011;37062;52.546;13.230;2022-09-09T04:20:06;8.38;;;6.22;;
51034;SDS011;37062;52.546;13.230;2022-09-09T04:22:38;12.07;;;7.85;;
51034;SDS011;37062;52.546;13.230;2022-09-09T04:25:08;10.43;;;7.85;;
51034;SDS011;37062;52.546;13.230;2022-09-09T04:27:35;5.22;;;4.72;;
51034;SDS011;37062;52.546;13.230;2022-09-09T04:30:03;11.05;;;6.85;;
51034;SDS011;37062;52.546;13.230;2022-09-09T04:32:33;6.55;;;5.60;;
51034;SDS011;37062;52.546;13.230;2022-09-09T04:35:01;7.38;;;4.40;;
51034;SDS011;37062;52.546;13.230;2022-09-09T04:37:29;5.30;;;3.95;;
51034;SDS011;37062;52.546;13.230;2022-09-09T04:39:58;5.38;;;3.90;;
51034;SDS011;37062;52.546;13.230;2022-09-09T04:42:31;4.70;;;4.18;;
51034;SDS011;37062;52.546;13.230;2022-09-09T04:45:01;5.20;;;4.30;;
51034;SDS011;37062;52.546;13.230;2022-09-09T04:47:31;5.05;;;4.40;;
51034;SDS011;37062;52.546;13.230;2022-09-09T04:49:58;5.47;;;4.10;;
51034;SDS011;37062;52.546;13.230;2022-09-09T04:52:26;7.20;;;4.60;;
51034;SDS011;37062;52.546;13.230;2022-09-09T04:54:54;4.65;;;3.95;;
51034;SDS011;37062;52.546;13.230;2022-09-09T04:57:21;6.60;;;3.97;;
51034;SDS011;37062;52.546;13.230;2022-09-09T04:59:50;5.28;;;4.30;;
51034;SDS011;37062;52.546;13.230;2022-09-09T05:02:17;4.57;;;4.10;;
51034;SDS011;37062;52.546;13.230;2022-09-09T05:04:45;4.90;;;3.55;;
51034;SDS011;37062;52.546;13.230;2022-09-09T05:07:13;4.10;;;3.58;;
51034;SDS011;37062;52.546;13.230;2022-09-09T05:09:40;4.75;;;4.30;;
51034;SDS011;37062;52.546;13.230;2022-09-09T05:12:08;4.07;;;3.67;;
51034;SDS011;37062;52.546;13.230;2022-09-09T05:14:41;5.72;;;3.90;;
51034;SDS011;37062;52.546;13.230;2022-09-09T05:17:11;4.60;;;3.95;;
51034;SDS011;37062;52.546;13.230;2022-09-09T05:19:39;4.97;;;3.38;;
51034;SDS011;37062;52.546;13.230;2022-09-09T05:22:06;4.68;;;3.13;;
51034;SDS011;37062;52.546;13.230;2022-09-09T05:24:41;3.53;;;3.10;;
51034;SDS011;37062;52.546;13.230;2022-09-09T05:27:10;5.88;;;3.10;;
51034;SDS011;37062;52.546;13.230;2022-09-09T05:29:38;7.50;;;3.38;;
51034;SDS011;37062;52.546;13.230;2022-09-09T05:32:09;4.20;;;3.53;;
51034;SDS011;37062;52.546;13.230;2022-09-09T05:34:38;7.75;;;5.03;;
51034;SDS011;37062;52.546;13.230;2022-09-09T05:37:05;3.92;;;3.47;;
51034;SDS011;37062;52.546;13.230;2022-09-09T05:39:34;4.25;;;3.10;;
51034;SDS011;37062;52.546;13.230;2022-09-09T05:42:03;3.63;;;3.00;;
51034;SDS011;37062;52.546;13.230;2022-09-09T05:44:32;4.63;;;3.03;;
51034;SDS011;37062;52.546;13.230;2022-09-09T05:47:01;4.88;;;3.20;;
51034;SDS011;37062;52.546;13.230;2022-09-09T05:49:28;6.72;;;3.67;;
51034;SDS011;37062;52.546;13.230;2022-09-09T05:51:57;5.03;;;3.25;;
51034;SDS011;37062;52.546;13.230;2022-09-09T05:54:24;4.75;;;3.45;;
51034;SDS011;37062;52.546;13.230;2022-09-09T05:56:54;5.55;;;3.25;;
51034;SDS011;37062;52.546;13.230;2022-09-09T05:59:22;6.63;;;4.45;;
51034;SDS011;37062;52.546;13.230;2022-09-09T06:01:51;5.57;;;4.30;;
51034;SDS011;37062;52.546;13.230;2022-09-09T06:04:25;4.32;;;3.50;;
51034;SDS011;37062;52.546;13.230;2022-09-09T06:06:53;5.93;;;3.38;;
51034;SDS011;37062;52.546;13.230;2022-09-09T06:09:23;5.40;;;2.85;;
51034;SDS011;37062;52.546;13.230;2022-09-09T06:11:51;7.10;;;3.90;;
51034;SDS011;37062;52.546;13.230;2022-09-09T06:14:21;4.50;;;3.70;;
51034;SDS011;37062;52.546;13.230;2022-09-09T06:16:51;6.78;;;3.25;;
51034;SDS011;37062;52.546;13.230;2022-09-09T06:19:26;3.47;;;2.80;;
51034;SDS011;37062;52.546;13.230;2022-09-09T06:21:55;5.45;;;3.17;;
51034;SDS011;37062;52.546;13.230;2022-09-09T06:24:25;9.10;;;3.70;;
51034;SDS011;37062;52.546;13.230;2022-09-09T06:26:53;4.43;;;2.70;;
51034;SDS011;37062;52.546;13.230;2022-09-09T06:29:26;3.72;;;2.40;;
51034;SDS011;37062;52.546;13.230;2022-09-09T06:31:53;3.35;;;2.30;;
51034;SDS011;37062;52.546;13.230;2022-09-09T06:34:23;5.00;;;2.38;;
51034;SDS011;37062;52.546;13.230;2022-09-09T06:36:54;3.45;;;2.10;;
51034;SDS011;37062;52.546;13.230;2022-09-09T06:39:23;3.80;;;2.45;;
51034;SDS011;37062;52.546;13.230;2022-09-09T06:41:52;3.95;;;2.08;;
51034;SDS011;37062;52.546;13.230;2022-09-09T06:44:38;3.25;;;2.00;;
51034;SDS011;37062;52.546;13.230;2022-09-09T06:47:10;4.75;;;2.03;;
51034;SDS011;37062;52.546;13.230;2022-09-09T06:49:39;2.65;;;1.52;;
51034;SDS011;37062;52.546;13.230;2022-09-09T06:52:09;4.25;;;2.67;;
51034;SDS011;37062;52.546;13.230;2022-09-09T06:54:39;5.22;;;2.80;;
51034;SDS011;37062;52.546;13.230;2022-09-09T06:57:07;3.00;;;2.30;;
51034;SDS011;37062;52.546;13.230;2022-09-09T06:59:36;5.47;;;2.33;;
51034;SDS011;37062;52.546;13.230;2022-09-09T07:02:03;5.70;;;1.98;;
51034;SDS011;37062;52.546;13.230;2022-09-09T07:04:31;5.03;;;2.20;;
51034;SDS011;37062;52.546;13.230;2022-09-09T07:06:59;3.47;;;1.80;;
51034;SDS011;37062;52.546;13.230;2022-09-09T07:09:26;2.53;;;2.08;;
51034;SDS011;37062;52.546;13.230;2022-09-09T07:11:56;4.53;;;2.47;;
51034;SDS011;37062;52.546;13.230;2022-09-09T07:14:26;7.82;;;4.10;;
51034;SDS011;37062;52.546;13.230;2022-09-09T07:16:58;7.43;;;3.63;;
51034;SDS011;37062;52.546;13.230;2022-09-09T07:19:28;7.93;;;4.18;;
51034;SDS011;37062;52.546;13.230;2022-09-09T07:21:56;4.13;;;3.03;;
51034;SDS011;37062;52.546;13.230;2022-09-09T07:24:24;9.80;;;3.28;;
51034;SDS011;37062;52.546;13.230;2022-09-09T07:26:57;11.32;;;2.80;;
51034;SDS011;37062;52.546;13.230;2022-09-09T07:29:26;5.70;;;3.22;;
51034;SDS011;37062;52.546;13.230;2022-09-09T07:31:53;8.00;;;5.57;;
51034;SDS011;37062;52.546;13.230;2022-09-09T07:34:26;7.22;;;4.45;;
51034;SDS011;37062;52.546;13.230;2022-09-09T07:36:54;8.13;;;5.00;;
51034;SDS011;37062;52.546;13.230;2022-09-09T07:39:23;10.95;;;7.28;;
51034;SDS011;37062;52.546;13.230;2022-09-09T07:41:53;8.10;;;4.20;;
51034;SDS011;37062;52.546;13.230;2022-09-09T07:44:24;5.97;;;3.20;;
51034;SDS011;37062;52.546;13.230;2022-09-09T07:47:05;5.85;;;5.10;;
51034;SDS011;37062;52.546;13.230;2022-09-09T07:49:41;5.82;;;4.80;;
51034;SDS011;37062;52.546;13.230;2022-09-09T07:52:09;5.13;;;3.20;;
51034;SDS011;37062;52.546;13.230;2022-09-09T07:54:40;7.60;;;5.60;;
51034;SDS011;37062;52.546;13.230;2022-09-09T07:57:10;4.78;;;2.90;;
51034;SDS011;37062;52.546;13.230;2022-09-09T07:59:39;7.20;;;3.95;;
51034;SDS011;37062;52.546;13.230;2022-09-09T08:02:08;5.45;;;3.65;;
51034;SDS011;37062;52.546;13.230;2022-09-09T08:04:38;4.93;;;2.30;;
51034;SDS011;37062;52.546;13.230;2022-09-09T08:07:05;3.47;;;2.10;;
51034;SDS011;37062;52.546;13.230;2022-09-09T08:09:39;6.55;;;2.78;;
51034;SDS011;37062;52.546;13.230;2022-09-09T08:12:13;4.60;;;2.40;;
51034;SDS011;37062;52.546;13.230;2022-09-09T08:14:42;2.92;;;1.60;;
51034;SDS011;37062;52.546;13.230;2022-09-09T08:17:10;6.57;;;2.45;;
51034;SDS011;37062;52.546;13.230;2022-09-09T08:19:38;3.88;;;1.90;;
51034;SDS011;37062;52.546;13.230;2022-09-09T08:22:12;3.85;;;1.70;;
51034;SDS011;37062;52.546;13.230;2022-09-09T08:24:39;4.47;;;1.75;;
51034;SDS011;37062;52.546;13.230;2022-09-09T08:27:08;5.22;;;1.92;;
51034;SDS011;37062;52.546;13.230;2022-09-09T08:29:37;4.47;;;1.95;;
51034;SDS011;37062;52.546;13.230;2022-09-09T08:32:06;5.15;;;1.73;;
51034;SDS011;37062;52.546;13.230;2022-09-09T08:34:36;4.22;;;1.60;;
51034;SDS011;37062;52.546;13.230;2022-09-09T08:37:08;4.05;;;1.42;;
51034;SDS011;37062;52.546;13.230;2022-09-09T08:39:39;3.33;;;1.60;;
51034;SDS011;37062;52.546;13.230;2022-09-09T08:42:10;3.22;;;1.60;;
51034;SDS011;37062;52.546;13.230;2022-09-09T08:44:54;4.00;;;1.80;;
51034;SDS011;37062;52.546;13.230;2022-09-09T08:47:34;4.05;;;1.40;;
51034;SDS011;37062;52.546;13.230;2022-09-09T08:50:16;3.28;;;1.58;;
51034;SDS011;37062;52.546;13.230;2022-09-09T08:52:53;4.70;;;1.38;;
51034;SDS011;37062;52.546;13.230;2022-09-09T08:55:33;5.05;;;1.80;;
51034;SDS011;37062;52.546;13.230;2022-09-09T08:58:09;2.83;;;1.55;;
51034;SDS011;37062;52.546;13.230;2022-09-09T09:00:42;3.42;;;1.40;;
51034;SDS011;37062;52.546;13.230;2022-09-09T09:03:22;4.88;;;1.58;;
51034;SDS011;37062;52.546;13.230;2022-09-09T09:05:57;2.65;;;1.75;;
51034;SDS011;37062;52.546;13.230;2022-09-09T09:08:35;4.38;;;1.58;;
51034;SDS011;37062;52.546;13.230;2022-09-09T09:11:07;3.90;;;1.40;;
51034;SDS011;37062;52.546;13.230;2022-09-09T09:13:37;4.43;;;2.20;;
51034;SDS011;37062;52.546;13.230;2022-09-09T09:16:15;4.28;;;2.30;;
51034;SDS011;37062;52.546;13.230;2022-09-09T09:18:52;4.82;;;2.83;;
51034;SDS011;37062;52.546;13.230;2022-09-09T09:21:25;6.80;;;3.15;;
51034;SDS011;37062;52.546;13.230;2022-09-09T09:24:00;5.40;;;2.70;;
51034;SDS011;37062;52.546;13.230;2022-09-09T09:26:33;4.97;;;3.20;;
51034;SDS011;37062;52.546;13.230;2022-09-09T09:29:07;3.28;;;2.40;;
51034;SDS011;37062;52.546;13.230;2022-09-09T09:31:41;6.53;;;3.15;;
51034;SDS011;37062;52.546;13.230;2022-09-09T09:34:12;5.25;;;2.00;;
51034;SDS011;37062;52.546;13.230;2022-09-09T09:36:41;4.20;;;3.03;;
51034;SDS011;37062;52.546;13.230;2022-09-09T09:39:22;5.43;;;2.05;;
51034;SDS011;37062;52.546;13.230;2022-09-09T09:41:51;2.75;;;1.50;;
51034;SDS011;37062;52.546;13.230;2022-09-09T09:44:24;4.75;;;2.40;;
51034;SDS011;37062;52.546;13.230;2022-09-09T09:47:05;4.88;;;3.85;;
51034;SDS011;37062;52.546;13.230;2022-09-09T09:49:34;4.35;;;1.80;;
51034;SDS011;37062;52.546;13.230;2022-09-09T09:52:03;3.85;;;1.85;;
51034;SDS011;37062;52.546;13.230;2022-09-09T09:54:32;6.65;;;2.90;;
51034;SDS011;37062;52.546;13.230;2022-09-09T09:57:08;2.47;;;1.70;;
51034;SDS011;37062;52.546;13.230;2022-09-09T09:59:38;3.60;;;1.38;;
51034;SDS011;37062;52.546;13.230;2022-09-09T10:02:25;3.95;;;2.65;;
51034;SDS011;37062;52.546;13.230;2022-09-09T10:05:04;4.50;;;1.90;;
51034;SDS011;37062;52.546;13.230;2022-09-09T10:07:35;3.53;;;1.35;;
51034;SDS011;37062;52.546;13.230;2022-09-09T10:10:04;3.38;;;2.03;;
51034;SDS011;37062;52.546;13.230;2022-09-09T10:12:36;6.28;;;1.67;;
51034;SDS011;37062;52.546;13.230;2022-09-09T10:15:21;4.00;;;2.10;;
51034;SDS011;37062;52.546;13.230;2022-09-09T10:18:10;4.85;;;1.40;;
51034;SDS011;37062;52.546;13.230;2022-09-09T10:20:54;6.45;;;1.45;;
51034;SDS011;37062;52.546;13.230;2022-09-09T10:23:37;4.60;;;1.52;;
51034;SDS011;37062;52.546;13.230;2022-09-09T10:26:26;3.78;;;1.58;;
51034;SDS011;37062;52.546;13.230;2022-09-09T10:29:10;5.18;;;3.50;;
51034;SDS011;37062;52.546;13.230;2022-09-09T10:31:51;6.03;;;1.60;;
51034;SDS011;37062;52.546;13.230;2022-09-09T10:34:35;3.03;;;1.30;;
51034;SDS011;37062;52.546;13.230;2022-09-09T10:37:21;3.47;;;1.75;;
51034;SDS011;37062;52.546;13.230;2022-09-09T10:40:00;10.15;;;1.85;;
51034;SDS011;37062;52.546;13.230;2022-09-09T10:42:33;4.85;;;1.70;;
51034;SDS011;37062;52.546;13.230;2022-09-09T10:45:05;5.35;;;1.27;;
51034;SDS011;37062;52.546;13.230;2022-09-09T10:47:46;2.97;;;1.30;;
51034;SDS011;37062;52.546;13.230;2022-09-09T10:50:40;4.43;;;1.27;;
51034;SDS011;37062;52.546;13.230;2022-09-09T10:53:20;3.13;;;1.33;;
51034;SDS011;37062;52.546;13.230;2022-09-09T10:55:56;2.30;;;1.20;;
51034;SDS011;37062;52.546;13.230;2022-09-09T10:58:39;4.30;;;1.20;;
51034;SDS011;37062;52.546;13.230;2022-09-09T11:01:13;5.95;;;2.50;;
51034;SDS011;37062;52.546;13.230;2022-09-09T11:03:46;4.95;;;2.67;;
51034;SDS011;37062;52.546;13.230;2022-09-09T11:06:21;4.55;;;1.80;;
51034;SDS011;37062;52.546;13.230;2022-09-09T11:08:58;2.65;;;1.33;;
51034;SDS011;37062;52.546;13.230;2022-09-09T11:11:29;3.97;;;1.85;;
51034;SDS011;37062;52.546;13.230;2022-09-09T11:14:01;3.60;;;2.33;;
51034;SDS011;37062;52.546;13.230;2022-09-09T11:16:38;4.85;;;1.67;;
51034;SDS011;37062;52.546;13.230;2022-09-09T11:19:12;2.80;;;1.55;;
51034;SDS011;37062;52.546;13.230;2022-09-09T11:21:45;4.85;;;2.10;;
51034;SDS011;37062;52.546;13.230;2022-09-09T11:24:18;6.65;;;3.58;;
51034;SDS011;37062;52.546;13.230;2022-09-09T11:26:50;3.30;;;1.50;;
51034;SDS011;37062;52.546;13.230;2022-09-09T11:32:27;3.70;;;1.67;;
51034;SDS011;37062;52.546;13.230;2022-09-09T11:35:21;5.40;;;1.90;;
51034;SDS011;37062;52.546;13.230;2022-09-09T11:38:02;5.70;;;1.65;;
51034;SDS011;37062;52.546;13.230;2022-09-09T11:40:45;6.68;;;1.95;;
51034;SDS011;37062;52.546;13.230;2022-09-09T11:43:13;3.88;;;1.98;;
51034;SDS011;37062;52.546;13.230;2022-09-09T11:45:51;2.58;;;1.10;;
51034;SDS011;37062;52.546;13.230;2022-09-09T11:48:31;2.08;;;1.15;;
51034;SDS011;37062;52.546;13.230;2022-09-09T11:51:01;2.05;;;1.00;;
51034;SDS011;37062;52.546;13.230;2022-09-09T11:53:34;4.97;;;1.20;;
51034;SDS011;37062;52.546;13.230;2022-09-09T11:56:08;2.10;;;1.00;;
51034;SDS011;37062;52.546;13.230;2022-09-09T11:58:42;2.97;;;1.20;;
51034;SDS011;37062;52.546;13.230;2022-09-09T12:04:14;2.58;;;1.58;;
51034;SDS011;37062;52.546;13.230;2022-09-09T12:06:44;3.72;;;1.30;;
51034;SDS011;37062;52.546;13.230;2022-09-09T12:09:17;3.15;;;1.20;;
51034;SDS011;37062;52.546;13.230;2022-09-09T12:11:50;5.03;;;1.63;;
51034;SDS011;37062;52.546;13.230;2022-09-09T12:14:22;4.18;;;1.67;;
51034;SDS011;37062;52.546;13.230;2022-09-09T12:17:08;5.95;;;1.08;;
51034;SDS011;37062;52.546;13.230;2022-09-09T12:19:44;2.25;;;1.23;;
51034;SDS011;37062;52.546;13.230;2022-09-09T12:22:13;4.47;;;1.80;;
51034;SDS011;37062;52.546;13.230;2022-09-09T12:24:49;4.50;;;1.30;;
51034;SDS011;37062;52.546;13.230;2022-09-09T12:27:25;4.18;;;1.40;;
51034;SDS011;37062;52.546;13.230;2022-09-09T12:30:00;5.28;;;1.88;;
51034;SDS011;37062;52.546;13.230;2022-09-09T12:32:30;3.80;;;1.52;;
51034;SDS011;37062;52.546;13.230;2022-09-09T12:34:59;4.55;;;2.67;;
51034;SDS011;37062;52.546;13.230;2022-09-09T12:37:32;4.40;;;2.40;;
51034;SDS011;37062;52.546;13.230;2022-09-09T12:40:02;6.45;;;3.70;;
51034;SDS011;37062;52.546;13.230;2022-09-09T12:42:33;5.07;;;2.25;;
51034;SDS011;37062;52.546;13.230;2022-09-09T12:45:15;4.78;;;2.95;;
51034;SDS011;37062;52.546;13.230;2022-09-09T12:47:44;4.43;;;1.80;;
51034;SDS011;37062;52.546;13.230;2022-09-09T12:50:15;5.75;;;2.50;;
51034;SDS011;37062;52.546;13.230;2022-09-09T12:52:45;2.58;;;1.33;;
51034;SDS011;37062;52.546;13.230;2022-09-09T12:55:16;3.28;;;1.40;;
51034;SDS011;37062;52.546;13.230;2022-09-09T12:57:47;5.47;;;3.00;;
51034;SDS011;37062;52.546;13.230;2022-09-09T13:00:20;3.63;;;1.73;;
51034;SDS011;37062;52.546;13.230;2022-09-09T13:02:50;4.70;;;1.50;;
51034;SDS011;37062;52.546;13.230;2022-09-09T13:05:20;2.17;;;1.40;;
51034;SDS011;37062;52.546;13.230;2022-09-09T13:07:49;7.43;;;3.20;;
51034;SDS011;37062;52.546;13.230;2022-09-09T13:10:20;3.60;;;1.83;;
51034;SDS011;37062;52.546;13.230;2022-09-09T13:12:53;4.50;;;1.70;;
51034;SDS011;37062;52.546;13.230;2022-09-09T13:15:22;3.63;;;1.48;;
51034;SDS011;37062;52.546;13.230;2022-09-09T13:17:52;2.78;;;1.52;;
51034;SDS011;37062;52.546;13.230;2022-09-09T13:20:22;3.45;;;1.15;;
51034;SDS011;37062;52.546;13.230;2022-09-09T13:22:51;2.22;;;1.10;;
51034;SDS011;37062;52.546;13.230;2022-09-09T13:25:21;3.30;;;1.20;;
51034;SDS011;37062;52.546;13.230;2022-09-09T13:27:57;2.45;;;0.90;;
51034;SDS011;37062;52.546;13.230;2022-09-09T13:30:27;3.45;;;1.10;;
51034;SDS011;37062;52.546;13.230;2022-09-09T13:33:01;3.67;;;1.00;;
51034;SDS011;37062;52.546;13.230;2022-09-09T13:35:46;2.58;;;1.05;;
51034;SDS011;37062;52.546;13.230;2022-09-09T13:38:15;2.97;;;1.20;;
51034;SDS011;37062;52.546;13.230;2022-09-09T13:40:51;3.78;;;1.05;;
51034;SDS011;37062;52.546;13.230;2022-09-09T13:43:24;2.80;;;1.13;;
51034;SDS011;37062;52.546;13.230;2022-09-09T13:45:56;4.10;;;1.10;;
51034;SDS011;37062;52.546;13.230;2022-09-09T13:48:25;3.53;;;0.95;;
51034;SDS011;37062;52.546;13.230;2022-09-09T13:50:54;5.25;;;1.60;;
51034;SDS011;37062;52.546;13.230;2022-09-09T13:53:22;3.85;;;1.40;;
51034;SDS011;37062;52.546;13.230;2022-09-09T13:55:50;1.63;;;1.00;;
51034;SDS011;37062;52.546;13.230;2022-09-09T13:58:18;2.38;;;1.20;;
51034;SDS011;37062;52.546;13.230;2022-09-09T14:00:48;2.65;;;1.10;;
51034;SDS011;37062;52.546;13.230;2022-09-09T14:03:16;3.03;;;1.30;;
51034;SDS011;37062;52.546;13.230;2022-09-09T14:05:44;5.50;;;2.28;;
51034;SDS011;37062;52.546;13.230;2022-09-09T14:08:15;3.70;;;1.83;;
51034;SDS011;37062;52.546;13.230;2022-09-09T14:10:54;4.10;;;2.00;;
51034;SDS011;37062;52.546;13.230;2022-09-09T14:13:23;3.13;;;1.40;;
51034;SDS011;37062;52.546;13.230;2022-09-09T14:15:53;3.58;;;1.73;;
51034;SDS011;37062;52.546;13.230;2022-09-09T14:18:20;5.32;;;2.75;;
51034;SDS011;37062;52.546;13.230;2022-09-09T14:20:48;5.25;;;2.58;;
51034;SDS011;37062;52.546;13.230;2022-09-09T14:23:16;4.95;;;2.05;;
51034;SDS011;37062;52.546;13.230;2022-09-09T14:25:44;5.97;;;2.97;;
51034;SDS011;37062;52.546;13.230;2022-09-09T14:28:12;2.85;;;1.30;;
51034;SDS011;37062;52.546;13.230;2022-09-09T14:30:41;4.95;;;1.70;;
51034;SDS011;37062;52.546;13.230;2022-09-09T14:33:12;3.72;;;2.20;;
51034;SDS011;37062;52.546;13.230;2022-09-09T14:35:41;6.78;;;2.58;;
51034;SDS011;37062;52.546;13.230;2022-09-09T14:38:09;5.07;;;2.00;;
51034;SDS011;37062;52.546;13.230;2022-09-09T14:40:37;2.42;;;1.58;;
51034;SDS011;37062;52.546;13.230;2022-09-09T14:43:05;1.23;;;0.90;;
51034;SDS011;37062;52.546;13.230;2022-09-09T14:45:32;3.55;;;1.83;;
51034;SDS011;37062;52.546;13.230;2022-09-09T14:48:03;2.90;;;1.17;;
51034;SDS011;37062;52.546;13.230;2022-09-09T14:50:31;4.28;;;1.27;;
51034;SDS011;37062;52.546;13.230;2022-09-09T14:53:00;12.18;;;8.48;;
51034;SDS011;37062;52.546;13.230;2022-09-09T14:55:27;3.63;;;1.83;;
51034;SDS011;37062;52.546;13.230;2022-09-09T14:57:55;6.57;;;3.10;;
51034;SDS011;37062;52.546;13.230;2022-09-09T15:00:22;2.28;;;1.10;;
51034;SDS011;37062;52.546;13.230;2022-09-09T15:02:51;3.50;;;1.50;;
51034;SDS011;37062;52.546;13.230;2022-09-09T15:05:19;3.47;;;1.50;;
51034;SDS011;37062;52.546;13.230;2022-09-09T15:07:48;3.78;;;1.40;;
51034;SDS011;37062;52.546;13.230;2022-09-09T15:10:16;2.45;;;1.75;;
51034;SDS011;37062;52.546;13.230;2022-09-09T15:12:44;6.88;;;3.28;;